首页
METAR-TAF:

METAR-TAF

机场 :

纳塔尔, 北里约格朗德, 巴西

纬度: 05-46-05S, 经度: 035-22-34W, 海拔: 88米

当前天气观测

该预报发布于29分钟前的00:00 UTC
风速5节,风向南转西南
温度 23°C
湿度 94%
气压 1015 hPa
能见度10公里或以上
少量云层高于2300英尺

METAR: SBSG 120000Z 20005KT 9999 FEW023 23/22 Q1015

时间: 21:29 (00:29 UTC)

预报

该预报发布于3小时和29分钟前的21:00 UTC
预报有效从12日的 00点(UTC)到 12日的 24点(UTC)
风速6节,风向南转西南
能见度10公里或以上
少量云层高于2300英尺
成为
从 12日的 02点(UTC)到 12日的 04点(UTC)
散云层高于2000英尺
少量云层高于2500英尺, 塔状积云.
成为
从 12日的 10点(UTC)到 12日的 12点(UTC)
风速12节,风向
成为
从 12日的 14点(UTC)到 12日的 16点(UTC)
风速11节,风向
散云层高于3000英尺
成为
在之间 12和20点(UTC)
少量云层高于2000英尺

TAF: SBSG 112100Z 1200/1224 20006KT 9999 FEW023 TN25/1205Z TX33/1216Z BECMG 1202/1204 22 SCT020 FEW025TCU BECMG 1210/1212 19012KT BECMG 1214/1216 17011KT SCT030 BECMG 1220 FEW020 RMK PEQ

超过4000个机场的气象观测和天气预报(METAR&TAF报告)。

可查询的气象台以黄色和红色小点在地图上表示。

将鼠标移到小点上方,可查看气象台名称。

然后点击查看天气观测和预报。

如需切换地图:点击带黑十字的绿色按钮放大地图;点击带横线的绿色按钮缩小地图;或者点击绿色箭头查看邻近地区的地图。


METAR-TAF: